Terminal Aerodrome Forecast
Issued by NWS

Home | Current Version | Previous Version | Text Only | Print | Product List | Glossary On
Versions: 1 2 3 4 5 6 7 8 9 10 11 12 13 14 15 16 17 18 19 20 21 22 23 24
000
FTUS43 KBIS 200521
TAFMOT
TAF
KMOT 200521Z 2006/2106 16003KT P6SM VCFG BKN200
      TEMPO 2008/2011 3SM BR FEW008
     FM201400 14010KT P6SM FEW040 SCT250
     FM210500 17007KT P6SM SCT150=

USA.gov is the U.S. government's official web portal to all federal, state and local government web resources and services.